createdAt,value
2018-11-04T00:01:04.965Z,61.09
2018-11-04T00:03:38.834Z,60.88
2018-11-04T00:06:12.664Z,60.72
2018-11-04T00:08:46.582Z,60.87
2018-11-04T00:11:20.465Z,60.58
2018-11-04T00:13:54.356Z,60.74
2018-11-04T00:16:28.163Z,60.89
2018-11-04T00:19:02.076Z,60.60
2018-11-04T00:21:35.926Z,60.54
2018-11-04T00:24:09.885Z,60.61
2018-11-04T00:26:43.650Z,60.57
2018-11-04T00:29:17.598Z,60.57
2018-11-04T00:31:51.445Z,60.57
2018-11-04T00:34:25.330Z,60.48
2018-11-04T00:36:59.201Z,60.43
2018-11-04T00:39:33.030Z,60.33
2018-11-04T00:42:06.859Z,60.72
2018-11-04T00:44:40.736Z,60.34
2018-11-04T00:47:14.570Z,60.76
2018-11-04T00:49:48.423Z,60.28
2018-11-04T00:52:22.240Z,60.81
2018-11-04T00:54:56.249Z,60.52
2018-11-04T00:57:30.075Z,60.60
2018-11-04T01:00:04.539Z,60.62
2018-11-04T01:02:38.397Z,60.54
2018-11-04T01:05:12.226Z,60.48
2018-11-04T01:07:46.096Z,60.59
2018-11-04T01:10:19.981Z,60.66
2018-11-04T01:12:53.766Z,60.73
2018-11-04T01:15:27.611Z,60.68
2018-11-04T01:18:01.464Z,60.52
2018-11-04T01:20:35.354Z,60.78
2018-11-04T01:23:09.292Z,60.97
2018-11-04T01:25:43.157Z,61.03
2018-11-04T01:28:17.005Z,60.90
2018-11-04T01:30:50.869Z,61.08
2018-11-04T01:33:24.721Z,61.50
2018-11-04T01:35:58.597Z,61.48
2018-11-04T01:38:32.435Z,61.51
2018-11-04T01:41:06.358Z,61.99
2018-11-04T01:43:40.178Z,61.73
2018-11-04T01:46:14.027Z,61.67
2018-11-04T01:48:47.908Z,61.54
2018-11-04T01:51:21.749Z,61.44
2018-11-04T01:53:55.624Z,61.47
2018-11-04T01:56:29.476Z,61.28
2018-11-04T01:59:03.596Z,61.14
2018-11-04T02:01:37.468Z,61.44
2018-11-04T02:04:11.314Z,61.75
2018-11-04T02:06:45.150Z,61.75
2018-11-04T02:09:18.954Z,61.64
2018-11-04T02:11:52.886Z,61.57
2018-11-04T02:14:26.732Z,61.76
2018-11-04T02:17:00.585Z,61.71
2018-11-04T02:19:34.406Z,61.38
2018-11-04T02:22:08.229Z,61.53
2018-11-04T02:24:42.047Z,61.56
2018-11-04T02:27:15.967Z,61.63
2018-11-04T02:29:49.769Z,61.57
2018-11-04T02:32:23.603Z,61.66
2018-11-04T02:34:57.396Z,61.39
2018-11-04T02:37:31.309Z,61.66
2018-11-04T02:40:05.410Z,62.00
2018-11-04T02:42:39.264Z,62.15
2018-11-04T02:45:13.060Z,62.12
2018-11-04T02:47:46.942Z,62.08
2018-11-04T02:50:20.885Z,62.13
2018-11-04T02:52:56.039Z,61.75
2018-11-04T02:55:29.843Z,61.90
2018-11-04T02:58:03.749Z,61.75
2018-11-04T03:00:37.564Z,61.93
2018-11-04T03:03:11.441Z,61.93
2018-11-04T03:05:45.260Z,61.95
2018-11-04T03:08:19.191Z,61.63
2018-11-04T03:10:52.981Z,61.88
2018-11-04T03:13:26.909Z,61.91
2018-11-04T03:16:00.744Z,61.31
2018-11-04T03:18:34.577Z,61.46
2018-11-04T03:21:08.701Z,61.77
2018-11-04T03:23:42.575Z,61.78
2018-11-04T03:26:16.397Z,61.81
2018-11-04T03:28:50.410Z,61.55
2018-11-04T03:31:24.248Z,61.79
2018-11-04T03:33:58.144Z,61.63
2018-11-04T03:36:32.009Z,61.45
2018-11-04T03:39:08.028Z,61.75
2018-11-04T03:41:42.628Z,61.93
2018-11-04T03:44:16.421Z,61.95
2018-11-04T03:46:50.243Z,62.12
2018-11-04T03:49:24.084Z,62.11
2018-11-04T03:51:57.917Z,62.30
2018-11-04T03:54:31.786Z,62.51
2018-11-04T03:57:06.141Z,62.67
2018-11-04T03:59:40.146Z,62.21
2018-11-04T04:02:13.971Z,62.20
2018-11-04T04:04:47.930Z,62.13
2018-11-04T04:07:21.789Z,61.78
2018-11-04T04:09:55.649Z,61.75
2018-11-04T04:12:29.479Z,61.66
2018-11-04T04:15:03.354Z,61.72
2018-11-04T04:17:37.228Z,61.80
2018-11-04T04:20:11.146Z,61.25
2018-11-04T04:22:45.008Z,61.62
2018-11-04T04:25:18.925Z,61.88
2018-11-04T04:27:52.762Z,61.76
2018-11-04T04:30:26.606Z,61.93
2018-11-04T04:33:00.401Z,61.60
2018-11-04T04:35:34.477Z,61.60
2018-11-04T04:38:08.275Z,61.55
2018-11-04T04:40:42.137Z,61.96
2018-11-04T04:43:15.965Z,61.89
2018-11-04T04:45:49.813Z,61.77
2018-11-04T04:48:23.652Z,61.57
2018-11-04T04:50:57.523Z,61.72
2018-11-04T04:53:31.375Z,61.60
2018-11-04T04:56:05.232Z,61.83
2018-11-04T04:58:39.041Z,62.19
2018-11-04T05:01:12.919Z,62.08
2018-11-04T05:03:46.748Z,62.12
2018-11-04T05:06:20.585Z,62.07
2018-11-04T05:08:54.694Z,62.24
2018-11-04T05:11:28.552Z,62.21
2018-11-04T05:14:02.427Z,62.18
2018-11-04T05:16:36.278Z,62.43
2018-11-04T05:19:10.092Z,62.37
2018-11-04T05:21:44.144Z,62.09
2018-11-04T05:24:17.946Z,62.01
2018-11-04T05:26:51.766Z,62.04
2018-11-04T05:29:25.578Z,62.37
2018-11-04T05:31:59.409Z,62.02
2018-11-04T05:34:33.286Z,62.50
2018-11-04T05:37:07.136Z,62.51
2018-11-04T05:39:40.949Z,62.40
2018-11-04T05:42:14.813Z,62.32
2018-11-04T05:44:48.608Z,62.62
2018-11-04T05:47:22.462Z,62.60
2018-11-04T05:49:56.271Z,62.81
2018-11-04T05:52:30.243Z,62.61
2018-11-04T05:55:04.492Z,62.64
2018-11-04T05:57:38.477Z,62.48
2018-11-04T06:00:12.464Z,62.49
2018-11-04T06:02:46.309Z,62.17
2018-11-04T06:05:20.189Z,62.22
2018-11-04T06:07:54.137Z,62.56
2018-11-04T06:10:27.950Z,62.61
2018-11-04T06:13:01.839Z,62.90
2018-11-04T06:15:35.675Z,62.95
2018-11-04T06:18:09.785Z,63.20
2018-11-04T06:20:43.698Z,63.42
2018-11-04T06:23:17.663Z,63.70
2018-11-04T06:25:51.493Z,63.56
2018-11-04T06:28:25.370Z,63.63
2018-11-04T06:30:59.225Z,63.78
2018-11-04T06:33:33.192Z,63.72
2018-11-04T06:36:07.038Z,63.74
2018-11-04T06:38:40.867Z,63.40
2018-11-04T06:41:14.740Z,63.09
2018-11-04T06:43:48.685Z,62.86
2018-11-04T06:46:22.607Z,62.92
2018-11-04T06:48:56.452Z,62.83
2018-11-04T06:51:30.326Z,63.03
2018-11-04T06:54:04.203Z,62.96
2018-11-04T06:56:38.038Z,63.52
2018-11-04T06:59:11.917Z,63.66
2018-11-04T07:01:45.784Z,64.11
2018-11-04T07:04:22.136Z,63.95
2018-11-04T07:06:56.013Z,63.90
2018-11-04T07:09:29.978Z,63.93
2018-11-04T07:12:03.765Z,63.97
2018-11-04T07:14:37.645Z,63.59
2018-11-04T07:17:11.489Z,63.84
2018-11-04T07:19:45.458Z,63.53
2018-11-04T07:22:19.296Z,63.84
2018-11-04T07:24:53.174Z,63.60
2018-11-04T07:27:27.007Z,63.46
2018-11-04T07:30:00.889Z,63.49
2018-11-04T07:32:34.793Z,63.94
2018-11-04T07:35:09.282Z,63.54
2018-11-04T07:37:43.100Z,63.63
2018-11-04T07:40:16.969Z,63.68
2018-11-04T07:42:50.782Z,64.11
2018-11-04T07:45:24.629Z,63.84
2018-11-04T07:47:58.433Z,63.97
2018-11-04T07:50:32.410Z,64.09
2018-11-04T07:53:06.523Z,64.45
2018-11-04T07:55:40.489Z,64.32
2018-11-04T07:58:14.322Z,64.26
2018-11-04T08:00:48.197Z,64.57
2018-11-04T08:03:22.059Z,64.49
2018-11-04T08:05:55.947Z,64.64
2018-11-04T08:08:29.783Z,64.88
2018-11-04T08:11:03.644Z,66.54
2018-11-04T08:13:37.554Z,67.28
2018-11-04T08:16:11.352Z,66.65
2018-11-04T08:18:45.225Z,65.99
2018-11-04T08:21:19.220Z,65.92
2018-11-04T08:23:53.972Z,65.74
2018-11-04T08:26:27.913Z,65.52
2018-11-04T08:29:01.745Z,65.01
2018-11-04T08:31:35.600Z,65.07
2018-11-04T08:34:09.432Z,64.94
2018-11-04T08:36:43.294Z,65.14
2018-11-04T08:39:17.095Z,65.18
2018-11-04T08:41:51.068Z,65.09
2018-11-04T08:44:24.926Z,65.75
2018-11-04T08:46:58.818Z,66.11
2018-11-04T08:49:32.634Z,66.18
2018-11-04T08:52:06.525Z,65.97
2018-11-04T08:54:40.367Z,65.95
2018-11-04T08:57:14.550Z,65.93
2018-11-04T08:59:48.397Z,66.11
2018-11-04T09:02:23.450Z,66.21
2018-11-04T09:04:57.371Z,65.76
2018-11-04T09:07:31.249Z,65.98
2018-11-04T09:10:07.118Z,65.37
2018-11-04T09:12:41.149Z,65.73
2018-11-04T09:15:15.029Z,65.48
2018-11-04T09:17:48.886Z,65.46
2018-11-04T09:20:22.705Z,66.24
2018-11-04T09:22:56.602Z,66.00
2018-11-04T09:25:30.476Z,65.59
2018-11-04T09:28:04.501Z,65.25
2018-11-04T09:30:38.299Z,65.41
2018-11-04T09:33:12.137Z,65.23
2018-11-04T09:35:46.144Z,65.32
2018-11-04T09:38:19.904Z,65.05
2018-11-04T09:40:53.746Z,64.98
2018-11-04T09:43:27.679Z,64.83
2018-11-04T09:46:01.480Z,64.77
2018-11-04T09:48:35.361Z,64.80
2018-11-04T09:51:09.240Z,64.64
2018-11-04T09:53:43.099Z,64.64
2018-11-04T09:56:16.998Z,64.58
2018-11-04T09:58:50.899Z,64.20
2018-11-04T10:01:24.717Z,64.14
2018-11-04T10:03:58.577Z,63.66
2018-11-04T10:06:32.435Z,63.87
2018-11-04T10:09:08.441Z,64.06
2018-11-04T10:11:42.297Z,63.68
2018-11-04T10:14:16.240Z,63.55
2018-11-04T10:16:50.061Z,64.02
2018-11-04T10:19:24.335Z,64.16
2018-11-04T10:21:58.204Z,64.19
2018-11-04T10:24:32.104Z,63.78
2018-11-04T10:27:05.968Z,63.99
2018-11-04T10:29:39.802Z,64.29
2018-11-04T10:32:13.616Z,64.15
2018-11-04T10:34:47.473Z,63.30
2018-11-04T10:37:21.383Z,64.13
2018-11-04T10:39:55.336Z,64.18
2018-11-04T10:42:29.274Z,64.59
2018-11-04T10:45:03.222Z,64.01
2018-11-04T10:47:37.107Z,63.96
2018-11-04T10:50:12.314Z,63.79
2018-11-04T10:55:25.505Z,63.28
2018-11-04T10:57:59.329Z,63.96
2018-11-04T11:00:38.247Z,64.13
2018-11-04T11:03:12.067Z,63.92
2018-11-04T11:05:45.925Z,63.65
2018-11-04T11:08:19.782Z,63.34
2018-11-04T11:10:53.660Z,63.41
2018-11-04T11:13:27.485Z,64.15
2018-11-04T11:16:01.494Z,63.37
2018-11-04T11:18:35.341Z,62.90
2018-11-04T11:21:09.233Z,62.78
2018-11-04T11:23:43.059Z,63.04
2018-11-04T11:26:17.656Z,62.91
2018-11-04T11:28:51.485Z,62.72
2018-11-04T11:31:25.354Z,62.72
2018-11-04T11:33:59.198Z,62.24
2018-11-04T11:36:33.196Z,62.31
2018-11-04T11:39:09.523Z,62.91
2018-11-04T11:41:44.075Z,62.92
2018-11-04T11:44:17.931Z,62.54
2018-11-04T11:46:51.812Z,62.67
2018-11-04T11:49:25.640Z,62.39
2018-11-04T11:52:00.753Z,62.38
2018-11-04T11:54:35.761Z,61.59
2018-11-04T11:57:12.957Z,61.79
2018-11-04T11:59:48.076Z,61.71
2018-11-04T12:02:23.117Z,61.92
2018-11-04T12:04:58.808Z,62.01
2018-11-04T12:07:32.748Z,62.08
2018-11-04T12:10:08.502Z,61.68
2018-11-04T12:12:42.618Z,62.64
2018-11-04T12:15:16.603Z,62.03
2018-11-04T12:17:50.483Z,62.28
2018-11-04T12:20:24.323Z,61.65
2018-11-04T12:22:58.207Z,62.29
2018-11-04T12:25:32.017Z,61.66
2018-11-04T12:28:05.932Z,62.11
2018-11-04T12:30:39.739Z,61.62
2018-11-04T12:33:13.570Z,61.24
2018-11-04T12:35:47.386Z,61.55
2018-11-04T12:38:21.404Z,61.10
2018-11-04T12:40:55.253Z,61.26
2018-11-04T12:43:29.289Z,61.26
2018-11-04T12:46:03.147Z,61.14
2018-11-04T12:48:37.006Z,61.13
2018-11-04T12:51:10.862Z,60.68
2018-11-04T12:53:44.719Z,60.88
2018-11-04T12:56:18.540Z,61.53
2018-11-04T12:58:52.474Z,61.03
2018-11-04T13:01:26.327Z,61.57
2018-11-04T13:04:00.256Z,61.33
2018-11-04T13:06:34.057Z,61.21
2018-11-04T13:09:09.174Z,61.52
2018-11-04T13:11:43.010Z,60.79
2018-11-04T13:14:16.872Z,61.11
2018-11-04T13:16:50.846Z,61.47
2018-11-04T13:19:24.790Z,61.16
2018-11-04T13:21:58.602Z,61.45
2018-11-04T13:24:32.743Z,62.00
2018-11-04T13:27:06.692Z,61.90
2018-11-04T13:29:40.502Z,61.74
2018-11-04T13:32:14.304Z,61.64
2018-11-04T13:34:48.250Z,61.21
2018-11-04T13:37:22.106Z,61.14
2018-11-04T13:39:56.159Z,61.65
2018-11-04T13:42:30.009Z,61.73
2018-11-04T13:45:03.895Z,61.63
2018-11-04T13:47:37.974Z,61.27
2018-11-04T13:50:13.593Z,61.25
2018-11-04T13:52:47.444Z,61.30
2018-11-04T13:55:21.300Z,60.91
2018-11-04T13:57:55.148Z,60.84
2018-11-04T14:00:29.032Z,61.56
2018-11-04T14:03:02.872Z,61.37
2018-11-04T14:05:36.750Z,61.39
2018-11-04T14:08:10.570Z,61.91
2018-11-04T14:10:44.544Z,61.84
2018-11-04T14:13:18.455Z,61.84
2018-11-04T14:15:52.271Z,61.70
2018-11-04T14:18:26.045Z,61.41
2018-11-04T14:20:59.922Z,61.61
2018-11-04T14:23:33.826Z,61.83
2018-11-04T14:26:08.095Z,61.75
2018-11-04T14:28:41.977Z,61.62
2018-11-04T14:31:15.964Z,61.92
2018-11-04T14:33:49.860Z,61.42
2018-11-04T14:36:23.749Z,61.01
2018-11-04T14:38:57.560Z,61.99
2018-11-04T14:41:31.438Z,61.61
2018-11-04T14:44:05.566Z,61.26
2018-11-04T14:46:39.423Z,61.42
2018-11-04T14:49:13.248Z,61.92
2018-11-04T14:51:47.112Z,61.87
2018-11-04T14:54:21.390Z,62.01
2018-11-04T14:56:55.253Z,61.67
2018-11-04T14:59:29.238Z,62.18
2018-11-04T15:02:03.176Z,62.27
2018-11-04T15:04:36.980Z,62.14
2018-11-04T15:07:10.914Z,61.97
2018-11-04T15:09:44.715Z,62.06
2018-11-04T15:12:18.616Z,62.15
2018-11-04T15:14:52.460Z,62.07
2018-11-04T15:17:26.398Z,61.91
2018-11-04T15:20:00.228Z,61.91
2018-11-04T15:22:34.276Z,62.21
2018-11-04T15:25:08.136Z,62.16
2018-11-04T15:27:41.968Z,62.11
2018-11-04T15:30:15.764Z,62.30
2018-11-04T15:32:49.660Z,62.90
2018-11-04T15:35:23.484Z,62.93
2018-11-04T15:37:57.373Z,62.72
2018-11-04T15:40:31.318Z,62.88
2018-11-04T15:43:05.290Z,62.91
2018-11-04T15:45:39.161Z,62.98
2018-11-04T15:48:13.039Z,63.53
2018-11-04T15:50:46.844Z,63.10
2018-11-04T15:53:20.807Z,63.04
2018-11-04T15:55:54.627Z,63.25
2018-11-04T15:58:28.464Z,63.45
2018-11-04T16:01:02.310Z,63.50
2018-11-04T16:03:36.148Z,63.80
2018-11-04T16:06:10.017Z,63.99
2018-11-04T16:08:43.843Z,63.43
2018-11-04T16:11:17.729Z,63.65
2018-11-04T16:13:51.641Z,64.14
2018-11-04T16:16:25.570Z,63.74
2018-11-04T16:18:59.479Z,64.08
2018-11-04T16:21:33.326Z,63.96
2018-11-04T16:24:07.274Z,63.95
2018-11-04T16:26:41.111Z,64.20
2018-11-04T16:29:14.965Z,64.45
2018-11-04T16:31:49.038Z,64.18
2018-11-04T16:34:23.306Z,64.39
2018-11-04T16:36:57.259Z,64.04
2018-11-04T16:39:31.289Z,64.09
2018-11-04T16:42:05.528Z,64.87
2018-11-04T16:44:39.770Z,64.56
2018-11-04T16:47:13.798Z,64.41
2018-11-04T16:49:48.080Z,64.26
2018-11-04T16:52:22.322Z,64.25
2018-11-04T16:54:56.706Z,64.41
2018-11-04T16:57:30.688Z,64.55
2018-11-04T17:00:04.816Z,65.16
2018-11-04T17:02:39.279Z,65.17
2018-11-04T17:05:13.830Z,65.03
2018-11-04T17:07:47.998Z,65.18
2018-11-04T17:10:22.293Z,65.13
2018-11-04T17:12:56.376Z,64.89
2018-11-04T17:15:30.626Z,65.22
2018-11-04T17:18:04.898Z,65.43
2018-11-04T17:20:39.028Z,65.20
2018-11-04T17:23:13.032Z,65.93
2018-11-04T17:25:47.092Z,65.62
2018-11-04T17:28:21.091Z,65.34
2018-11-04T17:30:55.141Z,65.42
2018-11-04T17:33:29.384Z,65.43
2018-11-04T17:36:03.568Z,65.47
2018-11-04T17:38:37.670Z,65.32
2018-11-04T17:41:11.769Z,65.82
2018-11-04T17:43:45.986Z,65.59
2018-11-04T17:46:20.297Z,65.49
2018-11-04T17:48:54.497Z,65.61
2018-11-04T17:51:28.571Z,66.14
2018-11-04T17:54:02.631Z,65.77
2018-11-04T17:56:36.701Z,65.20
2018-11-04T17:59:10.903Z,65.63
2018-11-04T18:01:45.121Z,65.57
2018-11-04T18:04:19.127Z,65.80
2018-11-04T18:06:53.244Z,65.36
2018-11-04T18:09:27.265Z,65.37
2018-11-04T18:12:01.312Z,65.44
2018-11-04T18:14:35.317Z,65.49
2018-11-04T18:17:09.453Z,65.91
2018-11-04T18:19:43.467Z,66.70
2018-11-04T18:22:17.517Z,66.22
2018-11-04T18:24:51.565Z,66.11
2018-11-04T18:27:25.914Z,66.04
2018-11-04T18:30:00.127Z,65.60
2018-11-04T18:32:34.165Z,65.46
2018-11-04T18:35:08.317Z,66.04
2018-11-04T18:37:42.487Z,66.46
2018-11-04T18:40:18.138Z,66.27
2018-11-04T18:42:52.403Z,66.14
2018-11-04T18:45:26.527Z,66.19
2018-11-04T18:48:00.599Z,66.19
2018-11-04T18:50:34.903Z,66.41
2018-11-04T18:53:09.255Z,66.25
2018-11-04T18:55:43.253Z,66.42
2018-11-04T18:58:17.302Z,66.05
2018-11-04T19:00:51.370Z,66.26
2018-11-04T19:03:25.393Z,66.25
2018-11-04T19:05:59.412Z,66.16
2018-11-04T19:08:33.592Z,66.07
2018-11-04T19:11:07.879Z,66.40
2018-11-04T19:13:42.135Z,66.71
2018-11-04T19:16:16.148Z,66.42
2018-11-04T19:18:50.546Z,66.54
2018-11-04T19:21:24.522Z,66.44
2018-11-04T19:23:58.564Z,66.19
2018-11-04T19:26:32.586Z,66.49
2018-11-04T19:29:07.057Z,66.25
2018-11-04T19:31:41.282Z,66.29
2018-11-04T19:34:15.553Z,66.58
2018-11-04T19:36:49.737Z,66.66
2018-11-04T19:39:23.993Z,66.43
2018-11-04T19:41:58.194Z,66.44
2018-11-04T19:44:32.383Z,66.33
2018-11-04T19:47:07.308Z,66.08
2018-11-04T19:49:41.680Z,66.41
2018-11-04T19:52:15.970Z,66.30
2018-11-04T19:54:50.237Z,66.25
2018-11-04T19:57:28.859Z,66.20
2018-11-04T20:00:03.652Z,66.34
2018-11-04T20:02:38.997Z,66.43
2018-11-04T20:05:14.737Z,65.96
2018-11-04T20:07:49.194Z,66.07
2018-11-04T20:10:29.950Z,66.00
2018-11-04T20:13:09.177Z,66.14
2018-11-04T20:15:43.415Z,66.13
2018-11-04T20:18:22.566Z,66.04
2018-11-04T20:20:56.820Z,66.02
2018-11-04T20:23:30.960Z,66.19
2018-11-04T20:26:07.132Z,65.89
2018-11-04T20:28:41.207Z,65.64
2018-11-04T20:31:21.724Z,65.91
2018-11-04T20:33:54.857Z,65.81
2018-11-04T20:36:29.317Z,65.86
2018-11-04T20:39:08.451Z,65.69
2018-11-04T20:41:43.329Z,65.59
2018-11-04T20:44:17.532Z,65.79
2018-11-04T20:46:51.636Z,65.73
2018-11-04T20:49:31.482Z,65.85
2018-11-04T20:52:05.850Z,65.61
2018-11-04T20:54:39.924Z,65.21
2018-11-04T20:57:19.075Z,65.39
2018-11-04T20:59:53.123Z,65.49
2018-11-04T21:02:27.642Z,65.15
2018-11-04T21:05:01.710Z,65.50
2018-11-04T21:07:36.080Z,65.40
2018-11-04T21:10:10.943Z,65.18
2018-11-04T21:12:45.124Z,65.21
2018-11-04T21:15:19.242Z,65.51
2018-11-04T21:17:53.410Z,65.57
2018-11-04T21:20:27.563Z,65.59
2018-11-04T21:23:01.773Z,65.62
2018-11-04T21:25:36.187Z,65.51
2018-11-04T21:28:10.240Z,66.11
2018-11-04T21:30:44.442Z,65.63
2018-11-04T21:33:18.692Z,65.22
2018-11-04T21:35:52.962Z,65.73
2018-11-04T21:38:27.238Z,65.53
2018-11-04T21:41:01.788Z,65.46
2018-11-04T21:43:36.159Z,65.61
2018-11-04T21:46:10.876Z,65.42
2018-11-04T21:48:45.829Z,65.62
2018-11-04T21:51:20.033Z,65.21
2018-11-04T21:53:54.415Z,65.35
2018-11-04T21:56:28.603Z,65.57
2018-11-04T21:59:03.120Z,65.26
2018-11-04T22:01:37.630Z,65.55
2018-11-04T22:04:12.132Z,65.48
2018-11-04T22:06:46.545Z,65.38
2018-11-04T22:09:20.718Z,65.27
2018-11-04T22:11:54.861Z,65.40
2018-11-04T22:14:28.988Z,65.22
2018-11-04T22:17:03.028Z,65.37
2018-11-04T22:19:37.886Z,65.95
2018-11-04T22:22:12.160Z,65.84
2018-11-04T22:24:46.391Z,65.38
2018-11-04T22:27:20.765Z,65.86
2018-11-04T22:29:55.251Z,65.73
2018-11-04T22:32:29.407Z,65.83
2018-11-04T22:35:05.243Z,66.03
2018-11-04T22:37:41.332Z,65.69
2018-11-04T22:40:15.671Z,65.61
2018-11-04T22:42:50.179Z,65.85
2018-11-04T22:45:26.915Z,65.64
2018-11-04T22:48:02.194Z,65.68
2018-11-04T22:50:36.778Z,65.35
2018-11-04T22:53:12.874Z,65.54
2018-11-04T22:55:47.526Z,65.14
2018-11-04T22:58:21.666Z,65.38
2018-11-04T23:01:00.338Z,65.30
2018-11-04T23:03:35.545Z,65.10
2018-11-04T23:06:10.301Z,65.02
2018-11-04T23:08:45.564Z,65.11
2018-11-04T23:11:20.969Z,65.16
2018-11-04T23:13:55.132Z,65.32
2018-11-04T23:16:29.767Z,65.64
2018-11-04T23:19:03.906Z,65.68
2018-11-04T23:21:38.892Z,66.44
2018-11-04T23:24:14.269Z,66.02
2018-11-04T23:26:49.376Z,65.95
2018-11-04T23:29:23.537Z,65.71
2018-11-04T23:31:57.872Z,65.55
2018-11-04T23:34:33.641Z,65.67
2018-11-04T23:37:09.063Z,65.25
2018-11-04T23:39:43.117Z,65.62
2018-11-04T23:42:17.365Z,65.34
2018-11-04T23:44:51.464Z,65.57
2018-11-04T23:47:25.817Z,65.70
2018-11-04T23:50:00.023Z,66.08
2018-11-04T23:52:34.224Z,66.05
2018-11-04T23:55:09.340Z,66.40
2018-11-04T23:57:43.621Z,65.93
